createdAt,value
2023-04-09T00:02:00.576Z,91.71
2023-04-09T00:04:27.151Z,91.98
2023-04-09T00:06:53.598Z,91.76
2023-04-09T00:09:20.780Z,92.86
2023-04-09T00:11:47.231Z,91.50
2023-04-09T00:14:13.618Z,92.33
2023-04-09T00:16:40.609Z,92.02
2023-04-09T00:19:07.647Z,91.39
2023-04-09T00:21:34.115Z,90.67
2023-04-09T00:24:00.591Z,90.73
2023-04-09T00:26:27.353Z,92.15
2023-04-09T00:28:54.114Z,92.82
2023-04-09T00:31:20.991Z,92.60
2023-04-09T00:33:47.480Z,93.36
2023-04-09T00:36:14.001Z,93.33
2023-04-09T00:38:40.785Z,92.02
2023-04-09T00:41:07.329Z,93.60
2023-04-09T00:43:33.771Z,91.88
2023-04-09T00:46:00.688Z,92.47
2023-04-09T00:48:27.607Z,92.98
2023-04-09T00:50:54.167Z,93.26
2023-04-09T00:53:20.648Z,92.21
2023-04-09T00:55:47.133Z,92.99
2023-04-09T00:58:13.995Z,93.25
2023-04-09T01:00:40.603Z,93.50
2023-04-09T01:03:07.572Z,93.20
2023-04-09T01:05:49.291Z,92.84
2023-04-09T01:08:32.448Z,93.85
2023-04-09T01:11:38.319Z,94.00
2023-04-09T01:14:22.974Z,94.23
2023-04-09T01:16:53.510Z,93.83
2023-04-09T01:19:42.173Z,93.27
2023-04-09T01:22:19.281Z,92.93
2023-04-09T01:25:01.030Z,93.14
2023-04-09T01:27:36.644Z,93.65
2023-04-09T01:30:04.762Z,94.17
2023-04-09T01:32:33.512Z,93.74
2023-04-09T01:35:00.299Z,94.86
2023-04-09T01:37:27.121Z,93.87
2023-04-09T01:39:53.785Z,93.90
2023-04-09T01:42:20.815Z,93.05
2023-04-09T01:44:47.614Z,93.26
2023-04-09T01:47:14.149Z,93.36
2023-04-09T01:49:41.541Z,95.18
2023-04-09T01:52:08.937Z,95.01
2023-04-09T01:54:35.551Z,95.40
2023-04-09T01:57:01.987Z,92.62
2023-04-09T01:59:28.436Z,93.27
2023-04-09T02:01:59.528Z,95.09
2023-04-09T02:04:33.684Z,94.65
2023-04-09T02:07:05.992Z,95.44
2023-04-09T02:09:34.309Z,95.64
2023-04-09T02:12:03.668Z,94.37
2023-04-09T02:14:32.229Z,92.89
2023-04-09T02:16:59.957Z,93.34
2023-04-09T02:19:39.125Z,92.12
2023-04-09T02:22:05.666Z,92.79
2023-04-09T02:24:32.107Z,93.50
2023-04-09T02:26:58.539Z,94.46
2023-04-09T02:29:25.430Z,93.00
2023-04-09T02:31:53.146Z,93.44
2023-04-09T02:34:20.275Z,92.59
2023-04-09T02:36:46.717Z,93.29
2023-04-09T02:39:13.170Z,92.05
2023-04-09T02:41:40.982Z,91.83
2023-04-09T02:44:07.506Z,92.55
2023-04-09T02:46:34.134Z,92.62
2023-04-09T02:49:00.622Z,93.36
2023-04-09T02:51:27.491Z,93.33
2023-04-09T02:53:53.902Z,93.65
2023-04-09T02:56:20.528Z,94.21
2023-04-09T02:58:49.419Z,93.48
2023-04-09T03:01:16.033Z,92.52
2023-04-09T03:03:43.059Z,93.07
2023-04-09T03:06:09.646Z,93.91
2023-04-09T03:08:36.060Z,94.33
2023-04-09T03:11:02.714Z,93.44
2023-04-09T03:13:29.175Z,94.02
2023-04-09T03:15:55.700Z,93.13
2023-04-09T03:18:22.148Z,94.85
2023-04-09T03:20:48.597Z,94.56
2023-04-09T03:23:15.337Z,93.89
2023-04-09T03:25:41.762Z,94.16
2023-04-09T03:28:08.189Z,93.90
2023-04-09T03:30:34.687Z,94.63
2023-04-09T03:33:01.100Z,93.63
2023-04-09T03:35:27.586Z,93.97
2023-04-09T03:37:54.022Z,94.51
2023-04-09T03:40:20.408Z,95.29
2023-04-09T03:42:46.843Z,94.72
2023-04-09T03:45:13.270Z,95.26
2023-04-09T03:47:39.806Z,95.48
2023-04-09T03:50:06.890Z,96.00
2023-04-09T03:52:33.378Z,95.66
2023-04-09T03:54:59.900Z,95.59
2023-04-09T03:57:26.326Z,95.64
2023-04-09T03:59:52.764Z,95.38
2023-04-09T04:02:19.403Z,95.47
2023-04-09T04:04:46.245Z,96.27
2023-04-09T04:07:12.690Z,96.54
2023-04-09T04:09:39.071Z,96.69
2023-04-09T04:12:05.687Z,96.39
2023-04-09T04:14:32.118Z,97.25
2023-04-09T04:16:58.569Z,97.64
2023-04-09T04:19:25.159Z,97.35
2023-04-09T04:21:51.689Z,97.07
2023-04-09T04:24:18.104Z,97.07
2023-04-09T04:26:44.711Z,98.63
2023-04-09T04:29:11.334Z,97.88
2023-04-09T04:31:37.846Z,98.37
2023-04-09T04:34:04.371Z,98.27
2023-04-09T04:36:31.020Z,97.97
2023-04-09T04:38:57.412Z,98.39
2023-04-09T04:41:23.869Z,98.17
2023-04-09T04:43:50.303Z,99.05
2023-04-09T04:46:16.843Z,98.25
2023-04-09T04:48:43.343Z,98.52
2023-04-09T04:51:09.797Z,99.08
2023-04-09T04:53:36.187Z,99.82
2023-04-09T04:56:02.631Z,98.99
2023-04-09T04:58:30.362Z,99.11
2023-04-09T05:00:56.787Z,98.28
2023-04-09T05:03:25.286Z,98.50
2023-04-09T05:05:53.355Z,99.57
2023-04-09T05:08:19.778Z,100.00
2023-04-09T05:10:46.838Z,99.47
2023-04-09T05:13:13.242Z,98.96
2023-04-09T05:15:40.622Z,98.91
2023-04-09T05:18:08.145Z,99.04
2023-04-09T05:20:35.295Z,99.31
2023-04-09T05:23:01.852Z,98.84
2023-04-09T05:25:28.313Z,99.21
2023-04-09T05:27:54.747Z,99.21
2023-04-09T05:30:21.536Z,99.20
2023-04-09T05:32:47.969Z,99.02
2023-04-09T05:35:14.456Z,98.71
2023-04-09T05:37:41.187Z,98.75
2023-04-09T05:40:08.252Z,99.44
2023-04-09T05:42:34.673Z,99.85
2023-04-09T05:45:01.126Z,98.87
2023-04-09T05:47:27.659Z,98.70
2023-04-09T05:49:54.230Z,99.20
2023-04-09T05:52:21.442Z,98.53
2023-04-09T05:54:47.913Z,99.59
2023-04-09T05:57:14.752Z,99.20
2023-04-09T05:59:41.186Z,99.91
2023-04-09T06:02:07.655Z,100.00
2023-04-09T06:04:34.298Z,99.52
2023-04-09T06:07:01.350Z,99.97
2023-04-09T06:09:27.922Z,99.59
2023-04-09T06:11:54.397Z,100.00
2023-04-09T06:14:20.847Z,100.00
2023-04-09T06:16:47.278Z,99.64
2023-04-09T06:19:16.241Z,99.18
2023-04-09T06:21:42.682Z,98.43
2023-04-09T06:24:09.204Z,98.12
2023-04-09T06:26:35.752Z,96.57
2023-04-09T06:29:02.182Z,96.83
2023-04-09T06:31:28.667Z,96.21
2023-04-09T06:33:55.804Z,95.27
2023-04-09T06:36:22.975Z,94.86
2023-04-09T06:38:49.416Z,93.03
2023-04-09T06:41:16.184Z,93.28
2023-04-09T06:43:42.646Z,92.11
2023-04-09T06:46:09.330Z,91.22
2023-04-09T06:48:36.050Z,89.76
2023-04-09T06:51:02.505Z,88.74
2023-04-09T06:53:28.994Z,86.03
2023-04-09T06:55:57.098Z,85.50
2023-04-09T06:58:23.729Z,84.42
2023-04-09T07:00:50.278Z,83.64
2023-04-09T07:03:16.924Z,83.25
2023-04-09T07:05:43.488Z,81.75
2023-04-09T07:08:09.963Z,82.25
2023-04-09T07:10:36.815Z,80.68
2023-04-09T07:13:03.348Z,80.04
2023-04-09T07:15:29.798Z,79.50
2023-04-09T07:17:57.674Z,80.02
2023-04-09T07:20:24.224Z,76.61
2023-04-09T07:22:50.844Z,77.07
2023-04-09T07:25:17.285Z,77.11
2023-04-09T07:27:44.486Z,77.60
2023-04-09T07:30:11.154Z,74.81
2023-04-09T07:32:38.089Z,75.74
2023-04-09T07:35:07.862Z,74.54
2023-04-09T07:37:34.299Z,74.71
2023-04-09T07:40:00.954Z,74.29
2023-04-09T07:42:28.213Z,74.72
2023-04-09T07:44:54.716Z,74.11
2023-04-09T07:47:21.656Z,74.94
2023-04-09T07:49:48.130Z,74.86
2023-04-09T07:52:14.801Z,74.16
2023-04-09T07:54:41.372Z,73.40
2023-04-09T07:57:07.845Z,72.34
2023-04-09T07:59:34.910Z,72.63
2023-04-09T08:02:02.432Z,71.97
2023-04-09T08:04:29.040Z,70.57
2023-04-09T08:06:55.699Z,70.36
2023-04-09T08:09:22.160Z,71.27
2023-04-09T08:11:48.990Z,69.55
2023-04-09T08:14:16.937Z,70.75
2023-04-09T08:16:45.046Z,68.91
2023-04-09T08:19:11.912Z,69.86
2023-04-09T08:21:39.465Z,69.00
2023-04-09T08:24:07.044Z,67.80
2023-04-09T08:26:33.456Z,69.32
2023-04-09T08:29:00.006Z,68.33
2023-04-09T08:31:27.306Z,69.06
2023-04-09T08:33:53.774Z,68.50
2023-04-09T08:36:21.487Z,67.62
2023-04-09T08:38:48.609Z,67.46
2023-04-09T08:41:19.998Z,66.42
2023-04-09T08:43:57.765Z,67.61
2023-04-09T08:46:26.504Z,66.94
2023-04-09T08:48:53.967Z,65.62
2023-04-09T08:51:22.152Z,66.19
2023-04-09T08:53:52.662Z,64.42
2023-04-09T08:56:19.591Z,64.65
2023-04-09T08:58:46.826Z,65.50
2023-04-09T09:01:20.819Z,65.56
2023-04-09T09:04:03.755Z,64.65
2023-04-09T09:06:35.873Z,64.21
2023-04-09T09:09:16.307Z,63.20
2023-04-09T09:11:43.857Z,61.89
2023-04-09T09:14:11.593Z,63.52
2023-04-09T09:16:43.745Z,60.64
2023-04-09T09:19:28.673Z,61.50
2023-04-09T09:21:59.849Z,59.99
2023-04-09T09:24:26.400Z,61.55
2023-04-09T09:26:54.448Z,59.64
2023-04-09T09:29:21.223Z,61.26
2023-04-09T09:31:51.550Z,59.02
2023-04-09T09:34:19.065Z,57.79
2023-04-09T09:36:46.443Z,59.92
2023-04-09T09:39:14.214Z,60.60
2023-04-09T09:41:43.928Z,55.31
2023-04-09T09:44:11.925Z,55.76
2023-04-09T09:46:40.646Z,55.03
2023-04-09T09:49:07.819Z,56.17
2023-04-09T09:51:37.428Z,56.03
2023-04-09T09:54:04.028Z,53.47
2023-04-09T09:56:34.669Z,56.59
2023-04-09T09:59:17.458Z,56.07
2023-04-09T10:01:44.737Z,54.07
2023-04-09T10:04:14.476Z,51.80
2023-04-09T10:06:45.083Z,52.28
2023-04-09T10:09:11.870Z,52.92
2023-04-09T10:11:42.380Z,51.95
2023-04-09T10:14:09.701Z,52.76
2023-04-09T10:16:36.148Z,50.81
2023-04-09T10:19:03.292Z,50.07
2023-04-09T10:21:42.574Z,49.77
2023-04-09T10:24:09.471Z,49.25
2023-04-09T10:26:40.139Z,45.45
2023-04-09T10:29:14.588Z,46.65
2023-04-09T10:31:54.818Z,44.76
2023-04-09T10:34:23.553Z,47.11
2023-04-09T10:36:54.955Z,44.88
2023-04-09T10:39:21.758Z,47.43
2023-04-09T10:41:49.232Z,43.62
2023-04-09T10:44:27.048Z,47.80
2023-04-09T10:46:56.597Z,46.74
2023-04-09T10:49:27.087Z,46.05
2023-04-09T10:51:53.512Z,46.30
2023-04-09T10:54:34.981Z,47.12
2023-04-09T10:57:07.325Z,49.57
2023-04-09T10:59:34.428Z,48.99
2023-04-09T11:02:00.971Z,49.88
2023-04-09T11:05:10.493Z,48.02
2023-04-09T11:07:40.703Z,49.78
2023-04-09T11:10:07.713Z,48.17
2023-04-09T11:12:34.131Z,47.75
2023-04-09T11:15:00.659Z,49.47
2023-04-09T11:17:27.441Z,48.17
2023-04-09T11:19:55.572Z,48.65
2023-04-09T11:22:22.244Z,48.08
2023-04-09T11:24:50.714Z,49.39
2023-04-09T11:27:19.494Z,49.70
2023-04-09T11:29:45.896Z,49.21
2023-04-09T11:32:12.589Z,47.93
2023-04-09T11:34:39.022Z,47.72
2023-04-09T11:37:09.060Z,48.80
2023-04-09T11:39:38.617Z,49.39
2023-04-09T11:42:05.210Z,48.27
2023-04-09T11:44:31.656Z,46.89
2023-04-09T11:46:59.026Z,48.65
2023-04-09T11:49:25.628Z,48.02
2023-04-09T11:51:52.194Z,47.25
2023-04-09T11:54:18.737Z,48.48
2023-04-09T11:56:45.158Z,47.21
2023-04-09T11:59:14.481Z,49.35
2023-04-09T12:01:41.704Z,46.61
2023-04-09T12:04:09.457Z,48.05
2023-04-09T12:06:40.374Z,45.85
2023-04-09T12:09:08.775Z,45.66
2023-04-09T12:11:37.117Z,45.07
2023-04-09T12:14:04.358Z,45.04
2023-04-09T12:16:34.764Z,46.51
2023-04-09T12:19:03.074Z,45.75
2023-04-09T12:21:47.983Z,44.84
2023-04-09T12:24:15.336Z,47.90
2023-04-09T12:26:41.770Z,44.74
2023-04-09T12:29:08.349Z,44.98
2023-04-09T12:31:34.789Z,44.51
2023-04-09T12:34:01.205Z,44.94
2023-04-09T12:36:27.710Z,44.36
2023-04-09T12:38:54.136Z,45.91
2023-04-09T12:41:20.634Z,44.18
2023-04-09T12:43:47.972Z,45.42
2023-04-09T12:46:14.409Z,46.38
2023-04-09T12:48:40.836Z,43.29
2023-04-09T12:51:07.388Z,44.59
2023-04-09T12:53:34.023Z,43.08
2023-04-09T12:56:01.316Z,42.54
2023-04-09T12:58:27.824Z,43.79
2023-04-09T13:00:54.594Z,44.98
2023-04-09T13:03:21.533Z,43.27
2023-04-09T13:05:48.996Z,41.38
2023-04-09T13:08:16.113Z,40.71
2023-04-09T13:10:42.700Z,42.86
2023-04-09T13:13:12.121Z,42.00
2023-04-09T13:15:39.618Z,42.25
2023-04-09T13:18:06.106Z,40.22
2023-04-09T13:20:32.606Z,40.40
2023-04-09T13:22:59.053Z,40.97
2023-04-09T13:25:25.451Z,40.21
2023-04-09T13:27:51.896Z,40.56
2023-04-09T13:30:18.621Z,40.67
2023-04-09T13:32:45.053Z,42.15
2023-04-09T13:35:11.624Z,39.67
2023-04-09T13:37:38.093Z,40.54
2023-04-09T13:40:05.025Z,39.26
2023-04-09T13:42:32.093Z,42.88
2023-04-09T13:44:58.724Z,43.52
2023-04-09T13:47:25.142Z,42.57
2023-04-09T13:49:52.990Z,42.13
2023-04-09T13:52:19.477Z,40.52
2023-04-09T13:54:45.976Z,41.71
2023-04-09T13:57:12.455Z,40.30
2023-04-09T13:59:38.915Z,40.90
2023-04-09T14:02:05.488Z,40.09
2023-04-09T14:04:31.972Z,40.40
2023-04-09T14:06:58.407Z,41.07
2023-04-09T14:09:24.883Z,39.78
2023-04-09T14:11:51.436Z,39.46
2023-04-09T14:14:17.985Z,39.28
2023-04-09T14:16:44.444Z,38.89
2023-04-09T14:19:10.910Z,39.97
2023-04-09T14:21:37.321Z,41.35
2023-04-09T14:24:03.854Z,39.52
2023-04-09T14:26:30.322Z,42.88
2023-04-09T14:28:56.776Z,40.46
2023-04-09T14:31:23.316Z,40.32
2023-04-09T14:33:49.918Z,40.34
2023-04-09T14:36:16.669Z,39.31
2023-04-09T14:38:43.150Z,40.09
2023-04-09T14:41:09.850Z,40.40
2023-04-09T14:43:36.318Z,39.83
2023-04-09T14:46:03.977Z,41.36
2023-04-09T14:48:30.695Z,39.91
2023-04-09T14:50:57.214Z,41.55
2023-04-09T14:53:23.673Z,40.11
2023-04-09T14:55:50.294Z,40.89
2023-04-09T14:58:17.054Z,39.31
2023-04-09T15:00:44.952Z,39.46
2023-04-09T15:03:11.946Z,40.03
2023-04-09T15:05:38.720Z,40.97
2023-04-09T15:08:05.171Z,39.29
2023-04-09T15:10:31.668Z,39.84
2023-04-09T15:12:58.107Z,38.50
2023-04-09T15:15:24.653Z,40.04
2023-04-09T15:17:51.445Z,39.40
2023-04-09T15:20:18.406Z,37.84
2023-04-09T15:22:44.885Z,39.18
2023-04-09T15:25:13.759Z,40.33
2023-04-09T15:27:40.815Z,40.42
2023-04-09T15:30:08.037Z,40.87
2023-04-09T15:32:34.528Z,41.32
2023-04-09T15:35:01.303Z,41.53
2023-04-09T15:37:27.728Z,39.93
2023-04-09T15:39:54.146Z,41.37
2023-04-09T15:42:22.836Z,40.46
2023-04-09T15:44:50.303Z,41.02
2023-04-09T15:47:17.135Z,40.42
2023-04-09T15:49:43.887Z,41.64
2023-04-09T15:52:10.446Z,40.26
2023-04-09T15:54:36.942Z,40.99
2023-04-09T15:57:04.165Z,39.24
2023-04-09T15:59:30.755Z,41.25
2023-04-09T16:01:57.319Z,40.27
2023-04-09T16:04:23.807Z,39.56
2023-04-09T16:06:50.268Z,40.34
2023-04-09T16:09:16.756Z,41.09
2023-04-09T16:11:43.188Z,40.63
2023-04-09T16:14:09.646Z,40.72
2023-04-09T16:16:36.827Z,40.77
2023-04-09T16:19:03.378Z,40.40
2023-04-09T16:21:29.813Z,41.71
2023-04-09T16:23:56.366Z,40.48
2023-04-09T16:26:22.796Z,42.81
2023-04-09T16:28:49.256Z,42.34
2023-04-09T16:31:15.983Z,43.35
2023-04-09T16:33:42.831Z,44.16
2023-04-09T16:36:09.281Z,44.30
2023-04-09T16:38:36.369Z,43.61
2023-04-09T16:41:02.772Z,44.52
2023-04-09T16:43:29.897Z,44.03
2023-04-09T16:45:56.421Z,44.10
2023-04-09T16:48:23.884Z,43.43
2023-04-09T16:50:50.352Z,44.68
2023-04-09T16:53:16.799Z,44.61
2023-04-09T16:55:44.739Z,44.30
2023-04-09T16:58:11.134Z,44.51
2023-04-09T17:00:37.870Z,44.74
2023-04-09T17:03:04.509Z,45.05
2023-04-09T17:05:31.270Z,45.68
2023-04-09T17:07:57.753Z,45.59
2023-04-09T17:10:24.250Z,46.05
2023-04-09T17:12:50.770Z,47.44
2023-04-09T17:15:17.741Z,46.75
2023-04-09T17:17:45.671Z,46.96
2023-04-09T17:20:12.687Z,47.20
2023-04-09T17:22:39.294Z,47.20
2023-04-09T17:25:06.180Z,48.10
2023-04-09T17:27:32.684Z,47.78
2023-04-09T17:29:59.202Z,48.10
2023-04-09T17:32:25.956Z,48.16
2023-04-09T17:34:52.560Z,47.56
2023-04-09T17:37:19.780Z,48.74
2023-04-09T17:39:46.379Z,48.80
2023-04-09T17:42:12.842Z,48.07
2023-04-09T17:44:39.321Z,48.95
2023-04-09T17:47:07.294Z,48.64
2023-04-09T17:49:33.801Z,48.26
2023-04-09T17:52:00.333Z,48.34
2023-04-09T17:54:26.809Z,48.24
2023-04-09T17:56:53.205Z,48.46
2023-04-09T17:59:20.470Z,49.29
2023-04-09T18:01:47.003Z,49.25
2023-04-09T18:04:13.955Z,48.88
2023-04-09T18:06:40.689Z,49.22
2023-04-09T18:09:07.482Z,49.97
2023-04-09T18:11:36.172Z,49.67
2023-04-09T18:14:07.715Z,50.35
2023-04-09T18:16:38.435Z,50.58
2023-04-09T18:19:05.947Z,51.11
2023-04-09T18:21:32.466Z,50.60
2023-04-09T18:23:59.144Z,50.34
2023-04-09T18:26:25.691Z,50.54
2023-04-09T18:28:52.306Z,51.57
2023-04-09T18:31:19.023Z,51.73
2023-04-09T18:33:45.522Z,51.94
2023-04-09T18:36:12.108Z,52.21
2023-04-09T18:38:39.335Z,52.67
2023-04-09T18:41:05.799Z,53.25
2023-04-09T18:43:32.212Z,52.97
2023-04-09T18:45:59.089Z,53.24
2023-04-09T18:48:25.921Z,53.49
2023-04-09T18:50:52.366Z,54.29
2023-04-09T18:53:18.744Z,54.94
2023-04-09T18:55:46.372Z,55.87
2023-04-09T18:58:13.853Z,56.81
2023-04-09T19:00:40.504Z,57.67
2023-04-09T19:03:07.783Z,57.71
2023-04-09T19:05:35.234Z,58.37
2023-04-09T19:08:03.156Z,59.46
2023-04-09T19:10:29.607Z,59.66
2023-04-09T19:12:56.096Z,60.78
2023-04-09T19:15:26.005Z,60.20
2023-04-09T19:17:52.991Z,59.65
2023-04-09T19:20:19.851Z,60.85
2023-04-09T19:22:50.299Z,62.14
2023-04-09T19:25:18.146Z,62.26
2023-04-09T19:27:45.350Z,62.24
2023-04-09T19:30:12.395Z,63.73
2023-04-09T19:32:39.048Z,63.82
2023-04-09T19:35:07.069Z,63.95
2023-04-09T19:37:34.725Z,64.25
2023-04-09T19:40:04.339Z,65.60
2023-04-09T19:42:34.649Z,65.25
2023-04-09T19:45:01.082Z,65.76
2023-04-09T19:47:28.151Z,65.24
2023-04-09T19:49:54.653Z,66.52
2023-04-09T19:52:21.199Z,67.93
2023-04-09T19:54:47.664Z,67.52
2023-04-09T19:57:15.199Z,66.50
2023-04-09T19:59:41.673Z,66.04
2023-04-09T20:02:08.341Z,65.90
2023-04-09T20:04:34.834Z,66.64
2023-04-09T20:07:01.289Z,68.40
2023-04-09T20:09:29.034Z,69.09
2023-04-09T20:11:55.555Z,69.31
2023-04-09T20:14:22.039Z,69.91
2023-04-09T20:16:48.551Z,69.68
2023-04-09T20:19:15.204Z,69.69
2023-04-09T20:21:43.498Z,69.71
2023-04-09T20:24:09.949Z,68.08
2023-04-09T20:26:36.602Z,70.92
2023-04-09T20:29:03.113Z,70.88
2023-04-09T20:31:30.873Z,72.73
2023-04-09T20:33:57.433Z,72.18
2023-04-09T20:36:23.840Z,73.54
2023-04-09T20:38:50.243Z,72.41
2023-04-09T20:41:16.644Z,71.84
2023-04-09T20:43:43.074Z,72.44
2023-04-09T20:46:09.669Z,73.97
2023-04-09T20:48:36.231Z,74.38
2023-04-09T20:51:08.032Z,74.38
2023-04-09T20:53:34.434Z,72.21
2023-04-09T20:56:02.003Z,74.51
2023-04-09T20:58:28.399Z,75.89
2023-04-09T21:01:06.566Z,76.35
2023-04-09T21:03:34.611Z,75.05
2023-04-09T21:06:01.607Z,74.22
2023-04-09T21:08:29.067Z,74.79
2023-04-09T21:10:56.012Z,74.79
2023-04-09T21:13:23.566Z,75.52
2023-04-09T21:15:50.192Z,75.29
2023-04-09T21:18:17.306Z,74.95
2023-04-09T21:20:45.753Z,74.70
2023-04-09T21:23:12.738Z,75.17
2023-04-09T21:25:39.187Z,76.48
2023-04-09T21:28:06.332Z,77.08
2023-04-09T21:30:37.912Z,76.77
2023-04-09T21:33:06.580Z,76.81
2023-04-09T21:35:33.820Z,76.01
2023-04-09T21:38:00.423Z,76.57
2023-04-09T21:40:27.186Z,77.54
2023-04-09T21:42:53.620Z,76.49
2023-04-09T21:45:20.060Z,77.19
2023-04-09T21:47:46.874Z,77.82
2023-04-09T21:50:14.949Z,77.74
2023-04-09T21:52:41.906Z,77.92
2023-04-09T21:55:10.168Z,78.84
2023-04-09T21:57:36.943Z,78.99
2023-04-09T22:00:05.025Z,77.85
2023-04-09T22:02:31.684Z,78.16
2023-04-09T22:05:01.361Z,78.41
2023-04-09T22:07:27.968Z,78.73
2023-04-09T22:09:57.682Z,79.89
2023-04-09T22:12:24.098Z,80.63
2023-04-09T22:14:50.890Z,79.73
2023-04-09T22:17:17.568Z,80.42
2023-04-09T22:19:44.086Z,80.36
2023-04-09T22:22:13.406Z,79.54
2023-04-09T22:24:39.889Z,79.67
2023-04-09T22:27:06.479Z,80.57
2023-04-09T22:29:33.816Z,80.18
2023-04-09T22:32:00.437Z,79.56
2023-04-09T22:34:26.871Z,80.44
2023-04-09T22:36:53.313Z,80.10
2023-04-09T22:39:19.820Z,79.14
2023-04-09T22:41:46.266Z,80.55
2023-04-09T22:44:12.674Z,80.93
2023-04-09T22:46:39.123Z,80.85
2023-04-09T22:49:06.236Z,79.95
2023-04-09T22:51:34.421Z,80.02
2023-04-09T22:54:01.812Z,79.44
2023-04-09T22:56:28.646Z,79.36
2023-04-09T22:58:55.279Z,81.23
2023-04-09T23:01:22.142Z,80.38
2023-04-09T23:03:49.964Z,80.13
2023-04-09T23:06:19.409Z,79.28
2023-04-09T23:08:46.449Z,78.17
2023-04-09T23:11:12.978Z,79.16
2023-04-09T23:13:39.501Z,78.92
2023-04-09T23:16:07.510Z,80.17
2023-04-09T23:18:35.364Z,79.50
2023-04-09T23:21:06.918Z,79.44
2023-04-09T23:23:34.199Z,79.43
2023-04-09T23:26:00.921Z,78.51
2023-04-09T23:28:27.589Z,78.39
2023-04-09T23:30:54.516Z,78.58
2023-04-09T23:33:20.961Z,78.80
2023-04-09T23:35:47.821Z,78.54
2023-04-09T23:38:15.433Z,79.08
2023-04-09T23:40:42.196Z,79.00
2023-04-09T23:43:08.891Z,78.49
2023-04-09T23:45:35.617Z,80.46
2023-04-09T23:48:03.239Z,80.87
2023-04-09T23:50:30.310Z,80.29
2023-04-09T23:52:59.875Z,79.16
2023-04-09T23:55:27.108Z,79.95
2023-04-09T23:57:53.747Z,81.59
